sensor_id;sensor_type;location;lat;lon;timestamp;temperature;humidity
18593;DHT22;9426;54.118;17.948;2022-08-04T00:03:22;18.40;99.90
18593;DHT22;9426;54.118;17.948;2022-08-04T00:08:49;18.40;99.90
18593;DHT22;9426;54.118;17.948;2022-08-04T00:14:13;18.40;99.90
18593;DHT22;9426;54.118;17.948;2022-08-04T00:19:40;18.30;99.90
18593;DHT22;9426;54.118;17.948;2022-08-04T00:25:06;18.20;99.90
18593;DHT22;9426;54.118;17.948;2022-08-04T00:30:30;18.20;99.90
18593;DHT22;9426;54.118;17.948;2022-08-04T00:35:53;18.10;99.90
18593;DHT22;9426;54.118;17.948;2022-08-04T00:41:24;18.10;99.90
18593;DHT22;9426;54.118;17.948;2022-08-04T00:47:03;18.00;99.90
18593;DHT22;9426;54.118;17.948;2022-08-04T00:52:35;17.90;99.90
18593;DHT22;9426;54.118;17.948;2022-08-04T00:58:21;17.80;99.90
18593;DHT22;9426;54.118;17.948;2022-08-04T01:03:50;17.70;99.90
18593;DHT22;9426;54.118;17.948;2022-08-04T01:09:26;17.70;99.90
18593;DHT22;9426;54.118;17.948;2022-08-04T01:15:04;17.60;99.90
18593;DHT22;9426;54.118;17.948;2022-08-04T01:20:32;17.60;99.90
18593;DHT22;9426;54.118;17.948;2022-08-04T01:32:02;17.50;99.90
18593;DHT22;9426;54.118;17.948;2022-08-04T01:37:37;17.40;99.90
18593;DHT22;9426;54.118;17.948;2022-08-04T01:43:02;17.40;99.90
18593;DHT22;9426;54.118;17.948;2022-08-04T01:48:29;17.30;99.90
18593;DHT22;9426;54.118;17.948;2022-08-04T01:53:53;17.30;99.90
18593;DHT22;9426;54.118;17.948;2022-08-04T01:59:18;17.20;99.90
18593;DHT22;9426;54.118;17.948;2022-08-04T02:04:43;17.20;99.90
18593;DHT22;9426;54.118;17.948;2022-08-04T02:10:10;17.10;99.90
18593;DHT22;9426;54.118;17.948;2022-08-04T02:15:44;17.10;99.90
18593;DHT22;9426;54.118;17.948;2022-08-04T02:21:11;17.00;99.90
18593;DHT22;9426;54.118;17.948;2022-08-04T02:26:40;17.00;99.90
18593;DHT22;9426;54.118;17.948;2022-08-04T02:32:06;17.00;99.90
18593;DHT22;9426;54.118;17.948;2022-08-04T02:37:34;16.90;99.90
18593;DHT22;9426;54.118;17.948;2022-08-04T02:42:57;16.90;99.90
18593;DHT22;9426;54.118;17.948;2022-08-04T02:48:26;16.90;99.90
18593;DHT22;9426;54.118;17.948;2022-08-04T02:53:55;16.90;99.90
18593;DHT22;9426;54.118;17.948;2022-08-04T02:59:22;16.90;99.90
18593;DHT22;9426;54.118;17.948;2022-08-04T03:04:53;16.80;99.90
18593;DHT22;9426;54.118;17.948;2022-08-04T03:10:48;16.80;99.90
18593;DHT22;9426;54.118;17.948;2022-08-04T03:16:34;16.80;99.90
18593;DHT22;9426;54.118;17.948;2022-08-04T03:22:35;16.80;99.90
18593;DHT22;9426;54.118;17.948;2022-08-04T03:34:27;16.90;99.90
18593;DHT22;9426;54.118;17.948;2022-08-04T03:40:33;17.10;99.90
18593;DHT22;9426;54.118;17.948;2022-08-04T03:46:40;17.30;99.90
18593;DHT22;9426;54.118;17.948;2022-08-04T03:52:12;17.40;99.90
18593;DHT22;9426;54.118;17.948;2022-08-04T03:58:35;17.50;99.90
18593;DHT22;9426;54.118;17.948;2022-08-04T04:04:36;17.70;99.90
18593;DHT22;9426;54.118;17.948;2022-08-04T04:10:32;17.90;99.90
18593;DHT22;9426;54.118;17.948;2022-08-04T04:16:23;18.10;99.90
18593;DHT22;9426;54.118;17.948;2022-08-04T04:22:01;18.40;99.90
18593;DHT22;9426;54.118;17.948;2022-08-04T04:27:45;18.60;99.90
18593;DHT22;9426;54.118;17.948;2022-08-04T04:33:30;18.90;99.90
18593;DHT22;9426;54.118;17.948;2022-08-04T04:39:08;19.40;99.90
18593;DHT22;9426;54.118;17.948;2022-08-04T04:44:50;19.60;99.90
18593;DHT22;9426;54.118;17.948;2022-08-04T04:50:22;20.00;99.90
18593;DHT22;9426;54.118;17.948;2022-08-04T04:55:55;20.20;99.90
18593;DHT22;9426;54.118;17.948;2022-08-04T05:01:50;20.40;99.90
18593;DHT22;9426;54.118;17.948;2022-08-04T05:07:38;20.70;99.90
18593;DHT22;9426;54.118;17.948;2022-08-04T05:13:33;20.90;99.90
18593;DHT22;9426;54.118;17.948;2022-08-04T05:19:06;21.10;99.90
18593;DHT22;9426;54.118;17.948;2022-08-04T05:24:37;21.30;99.90
18593;DHT22;9426;54.118;17.948;2022-08-04T05:30:06;21.10;99.90
18593;DHT22;9426;54.118;17.948;2022-08-04T05:35:35;21.00;99.90
18593;DHT22;9426;54.118;17.948;2022-08-04T05:40:59;21.00;99.90
18593;DHT22;9426;54.118;17.948;2022-08-04T05:46:45;21.10;99.90
18593;DHT22;9426;54.118;17.948;2022-08-04T05:52:13;21.60;99.90
18593;DHT22;9426;54.118;17.948;2022-08-04T05:57:38;22.00;99.90
18593;DHT22;9426;54.118;17.948;2022-08-04T06:03:03;22.30;99.90
18593;DHT22;9426;54.118;17.948;2022-08-04T06:08:29;22.50;99.90
18593;DHT22;9426;54.118;17.948;2022-08-04T06:13:56;22.70;99.90
18593;DHT22;9426;54.118;17.948;2022-08-04T06:19:20;22.90;99.90
18593;DHT22;9426;54.118;17.948;2022-08-04T06:24:48;23.10;99.90
18593;DHT22;9426;54.118;17.948;2022-08-04T06:30:14;23.40;99.90
18593;DHT22;9426;54.118;17.948;2022-08-04T06:35:40;23.60;99.90
18593;DHT22;9426;54.118;17.948;2022-08-04T06:41:06;23.90;99.90
18593;DHT22;9426;54.118;17.948;2022-08-04T06:46:31;24.10;99.90
18593;DHT22;9426;54.118;17.948;2022-08-04T06:51:56;24.30;99.90
18593;DHT22;9426;54.118;17.948;2022-08-04T06:57:23;24.40;99.90
18593;DHT22;9426;54.118;17.948;2022-08-04T07:02:50;24.70;99.90
18593;DHT22;9426;54.118;17.948;2022-08-04T07:08:14;24.90;99.90
18593;DHT22;9426;54.118;17.948;2022-08-04T07:13:40;25.20;99.90
18593;DHT22;9426;54.118;17.948;2022-08-04T07:19:06;25.40;99.90
18593;DHT22;9426;54.118;17.948;2022-08-04T07:24:30;25.60;99.90
18593;DHT22;9426;54.118;17.948;2022-08-04T07:29:55;26.00;99.90
18593;DHT22;9426;54.118;17.948;2022-08-04T07:35:18;26.30;99.90
18593;DHT22;9426;54.118;17.948;2022-08-04T07:40:43;26.50;99.90
18593;DHT22;9426;54.118;17.948;2022-08-04T07:46:09;26.80;99.90
18593;DHT22;9426;54.118;17.948;2022-08-04T07:51:33;26.90;99.90
18593;DHT22;9426;54.118;17.948;2022-08-04T07:56:58;27.10;99.90
18593;DHT22;9426;54.118;17.948;2022-08-04T08:02:24;27.30;99.90
18593;DHT22;9426;54.118;17.948;2022-08-04T08:07:49;27.40;95.70
18593;DHT22;9426;54.118;17.948;2022-08-04T08:13:14;27.50;95.10
18593;DHT22;9426;54.118;17.948;2022-08-04T08:18:38;27.80;94.10
18593;DHT22;9426;54.118;17.948;2022-08-04T08:24:04;28.10;94.20
18593;DHT22;9426;54.118;17.948;2022-08-04T08:29:32;28.30;92.10
18593;DHT22;9426;54.118;17.948;2022-08-04T08:34:57;28.50;91.20
18593;DHT22;9426;54.118;17.948;2022-08-04T08:40:28;28.90;91.80
18593;DHT22;9426;54.118;17.948;2022-08-04T08:52:22;29.20;90.10
18593;DHT22;9426;54.118;17.948;2022-08-04T08:58:08;29.20;84.20
18593;DHT22;9426;54.118;17.948;2022-08-04T09:09:55;29.40;82.50
18593;DHT22;9426;54.118;17.948;2022-08-04T09:15:35;29.40;80.20
18593;DHT22;9426;54.118;17.948;2022-08-04T09:21:03;29.50;83.30
18593;DHT22;9426;54.118;17.948;2022-08-04T09:26:33;29.70;83.70
18593;DHT22;9426;54.118;17.948;2022-08-04T09:32:07;29.90;80.90
18593;DHT22;9426;54.118;17.948;2022-08-04T09:37:37;29.70;80.40
18593;DHT22;9426;54.118;17.948;2022-08-04T09:43:13;29.60;78.40
18593;DHT22;9426;54.118;17.948;2022-08-04T09:48:43;29.60;75.20
18593;DHT22;9426;54.118;17.948;2022-08-04T09:54:15;29.80;76.30
18593;DHT22;9426;54.118;17.948;2022-08-04T09:59:53;30.30;76.00
18593;DHT22;9426;54.118;17.948;2022-08-04T10:05:21;30.20;73.70
18593;DHT22;9426;54.118;17.948;2022-08-04T10:10:52;30.50;71.60
18593;DHT22;9426;54.118;17.948;2022-08-04T10:16:39;30.40;72.10
18593;DHT22;9426;54.118;17.948;2022-08-04T10:22:13;31.20;72.70
18593;DHT22;9426;54.118;17.948;2022-08-04T10:27:42;31.40;73.00
18593;DHT22;9426;54.118;17.948;2022-08-04T10:33:12;31.60;69.50
18593;DHT22;9426;54.118;17.948;2022-08-04T10:38:53;31.00;66.90
18593;DHT22;9426;54.118;17.948;2022-08-04T10:44:26;30.90;67.70
18593;DHT22;9426;54.118;17.948;2022-08-04T10:49:55;31.30;70.30
18593;DHT22;9426;54.118;17.948;2022-08-04T10:55:27;31.20;68.40
18593;DHT22;9426;54.118;17.948;2022-08-04T11:00:55;31.70;66.40
18593;DHT22;9426;54.118;17.948;2022-08-04T11:06:23;32.20;66.50
18593;DHT22;9426;54.118;17.948;2022-08-04T11:11:52;33.00;65.90
18593;DHT22;9426;54.118;17.948;2022-08-04T11:17:20;32.50;61.20
18593;DHT22;9426;54.118;17.948;2022-08-04T11:22:53;32.00;62.50
18593;DHT22;9426;54.118;17.948;2022-08-04T11:28:23;31.90;61.60
18593;DHT22;9426;54.118;17.948;2022-08-04T11:33:56;32.30;61.00
18593;DHT22;9426;54.118;17.948;2022-08-04T11:39:27;33.60;60.60
18593;DHT22;9426;54.118;17.948;2022-08-04T11:44:58;33.70;59.60
18593;DHT22;9426;54.118;17.948;2022-08-04T11:50:28;33.60;57.70
18593;DHT22;9426;54.118;17.948;2022-08-04T11:55:58;33.40;59.60
18593;DHT22;9426;54.118;17.948;2022-08-04T12:01:27;34.90;57.70
18593;DHT22;9426;54.118;17.948;2022-08-04T12:06:58;36.40;55.50
18593;DHT22;9426;54.118;17.948;2022-08-04T12:12:52;36.80;52.30
18593;DHT22;9426;54.118;17.948;2022-08-04T12:18:21;36.00;50.00
18593;DHT22;9426;54.118;17.948;2022-08-04T12:23:46;36.00;52.60
18593;DHT22;9426;54.118;17.948;2022-08-04T12:29:13;38.30;49.90
18593;DHT22;9426;54.118;17.948;2022-08-04T12:34:40;38.60;47.90
18593;DHT22;9426;54.118;17.948;2022-08-04T12:40:13;39.60;46.90
18593;DHT22;9426;54.118;17.948;2022-08-04T12:45:44;40.50;45.50
18593;DHT22;9426;54.118;17.948;2022-08-04T12:51:09;41.10;42.60
18593;DHT22;9426;54.118;17.948;2022-08-04T12:56:36;41.00;42.50
18593;DHT22;9426;54.118;17.948;2022-08-04T13:02:01;41.80;41.10
18593;DHT22;9426;54.118;17.948;2022-08-04T13:12:54;43.60;42.00
18593;DHT22;9426;54.118;17.948;2022-08-04T13:18:20;43.50;43.80
18593;DHT22;9426;54.118;17.948;2022-08-04T13:23:45;43.70;37.80
18593;DHT22;9426;54.118;17.948;2022-08-04T13:29:13;41.20;38.50
18593;DHT22;9426;54.118;17.948;2022-08-04T13:34:41;40.50;38.10
18593;DHT22;9426;54.118;17.948;2022-08-04T13:40:07;38.60;39.60
18593;DHT22;9426;54.118;17.948;2022-08-04T13:45:32;39.60;42.00
18593;DHT22;9426;54.118;17.948;2022-08-04T13:50:57;42.10;37.00
18593;DHT22;9426;54.118;17.948;2022-08-04T13:56:31;43.40;36.70
18593;DHT22;9426;54.118;17.948;2022-08-04T14:01:59;44.40;35.10
18593;DHT22;9426;54.118;17.948;2022-08-04T14:07:25;43.20;34.20
18593;DHT22;9426;54.118;17.948;2022-08-04T14:12:51;44.10;33.60
18593;DHT22;9426;54.118;17.948;2022-08-04T14:18:16;44.10;34.50
18593;DHT22;9426;54.118;17.948;2022-08-04T14:23:44;42.70;33.60
18593;DHT22;9426;54.118;17.948;2022-08-04T14:29:12;41.30;36.40
18593;DHT22;9426;54.118;17.948;2022-08-04T14:34:38;42.80;35.80
18593;DHT22;9426;54.118;17.948;2022-08-04T14:40:04;42.30;34.50
18593;DHT22;9426;54.118;17.948;2022-08-04T14:45:31;42.30;35.20
18593;DHT22;9426;54.118;17.948;2022-08-04T14:50:55;43.40;35.30
18593;DHT22;9426;54.118;17.948;2022-08-04T14:56:21;40.70;34.60
18593;DHT22;9426;54.118;17.948;2022-08-04T15:01:52;43.20;35.50
18593;DHT22;9426;54.118;17.948;2022-08-04T15:07:17;44.10;33.40
18593;DHT22;9426;54.118;17.948;2022-08-04T15:12:42;44.10;33.50
18593;DHT22;9426;54.118;17.948;2022-08-04T15:18:07;42.00;34.10
18593;DHT22;9426;54.118;17.948;2022-08-04T15:23:31;42.80;34.10
18593;DHT22;9426;54.118;17.948;2022-08-04T15:29:01;40.40;34.80
18593;DHT22;9426;54.118;17.948;2022-08-04T15:34:26;41.30;36.00
18593;DHT22;9426;54.118;17.948;2022-08-04T15:39:54;41.20;35.10
18593;DHT22;9426;54.118;17.948;2022-08-04T15:45:23;41.20;35.40
18593;DHT22;9426;54.118;17.948;2022-08-04T15:51:00;42.30;35.50
18593;DHT22;9426;54.118;17.948;2022-08-04T15:56:43;42.60;35.60
18593;DHT22;9426;54.118;17.948;2022-08-04T16:08:15;41.20;34.40
18593;DHT22;9426;54.118;17.948;2022-08-04T16:14:08;40.60;35.40
18593;DHT22;9426;54.118;17.948;2022-08-04T16:19:45;40.90;36.70
18593;DHT22;9426;54.118;17.948;2022-08-04T16:25:14;40.80;35.30
18593;DHT22;9426;54.118;17.948;2022-08-04T16:30:39;40.40;35.90
18593;DHT22;9426;54.118;17.948;2022-08-04T16:36:05;40.80;36.90
18593;DHT22;9426;54.118;17.948;2022-08-04T16:41:40;40.70;36.50
18593;DHT22;9426;54.118;17.948;2022-08-04T16:47:05;40.10;36.60
18593;DHT22;9426;54.118;17.948;2022-08-04T16:52:28;39.00;38.60
18593;DHT22;9426;54.118;17.948;2022-08-04T16:57:55;38.40;39.50
18593;DHT22;9426;54.118;17.948;2022-08-04T17:03:19;37.50;40.50
18593;DHT22;9426;54.118;17.948;2022-08-04T17:08:43;36.00;42.70
18593;DHT22;9426;54.118;17.948;2022-08-04T17:14:08;34.50;45.50
18593;DHT22;9426;54.118;17.948;2022-08-04T17:19:31;32.90;48.00
18593;DHT22;9426;54.118;17.948;2022-08-04T17:24:58;31.80;50.10
18593;DHT22;9426;54.118;17.948;2022-08-04T17:30:26;31.00;51.20
18593;DHT22;9426;54.118;17.948;2022-08-04T17:35:50;30.30;52.80
18593;DHT22;9426;54.118;17.948;2022-08-04T17:41:15;29.80;54.80
18593;DHT22;9426;54.118;17.948;2022-08-04T17:46:43;29.50;54.60
18593;DHT22;9426;54.118;17.948;2022-08-04T17:52:07;29.10;55.20
18593;DHT22;9426;54.118;17.948;2022-08-04T17:57:33;28.80;55.90
18593;DHT22;9426;54.118;17.948;2022-08-04T18:02:58;28.50;56.90
18593;DHT22;9426;54.118;17.948;2022-08-04T18:08:23;28.20;57.90
18593;DHT22;9426;54.118;17.948;2022-08-04T18:13:52;28.00;57.90
18593;DHT22;9426;54.118;17.948;2022-08-04T18:19:17;27.70;59.70
18593;DHT22;9426;54.118;17.948;2022-08-04T18:24:41;27.30;60.30
18593;DHT22;9426;54.118;17.948;2022-08-04T18:30:08;27.00;61.10
18593;DHT22;9426;54.118;17.948;2022-08-04T18:35:34;26.60;63.00
18593;DHT22;9426;54.118;17.948;2022-08-04T18:40:57;26.30;63.80
18593;DHT22;9426;54.118;17.948;2022-08-04T18:46:20;26.00;64.50
18593;DHT22;9426;54.118;17.948;2022-08-04T18:51:45;25.80;65.60
18593;DHT22;9426;54.118;17.948;2022-08-04T18:57:09;25.50;67.60
18593;DHT22;9426;54.118;17.948;2022-08-04T19:02:33;25.10;68.20
18593;DHT22;9426;54.118;17.948;2022-08-04T19:29:56;25.30;72.50
18593;DHT22;9426;54.118;17.948;2022-08-04T19:35:20;24.00;73.30
18593;DHT22;9426;54.118;17.948;2022-08-04T19:40:43;23.80;75.00
18593;DHT22;9426;54.118;17.948;2022-08-04T19:46:09;23.60;77.30
18593;DHT22;9426;54.118;17.948;2022-08-04T19:51:32;23.40;78.60
18593;DHT22;9426;54.118;17.948;2022-08-04T19:56:59;23.30;81.00
18593;DHT22;9426;54.118;17.948;2022-08-04T20:02:24;23.10;83.60
18593;DHT22;9426;54.118;17.948;2022-08-04T20:07:48;23.00;88.50
18593;DHT22;9426;54.118;17.948;2022-08-04T20:13:12;22.80;91.50
18593;DHT22;9426;54.118;17.948;2022-08-04T20:18:36;22.70;94.60
18593;DHT22;9426;54.118;17.948;2022-08-04T20:24:01;22.50;99.20
18593;DHT22;9426;54.118;17.948;2022-08-04T20:29:24;22.30;99.90
18593;DHT22;9426;54.118;17.948;2022-08-04T20:34:50;22.10;99.90
18593;DHT22;9426;54.118;17.948;2022-08-04T20:40:13;22.00;99.90
18593;DHT22;9426;54.118;17.948;2022-08-04T20:52:43;21.70;99.90
18593;DHT22;9426;54.118;17.948;2022-08-04T21:05:47;21.50;99.90
18593;DHT22;9426;54.118;17.948;2022-08-04T21:11:34;21.30;99.90
18593;DHT22;9426;54.118;17.948;2022-08-04T21:23:57;22.10;99.90
18593;DHT22;9426;54.118;17.948;2022-08-04T21:29:22;21.00;99.90
18593;DHT22;9426;54.118;17.948;2022-08-04T21:34:46;21.10;99.90
18593;DHT22;9426;54.118;17.948;2022-08-04T21:40:12;21.30;99.90
18593;DHT22;9426;54.118;17.948;2022-08-04T21:45:38;21.50;99.90
18593;DHT22;9426;54.118;17.948;2022-08-04T21:51:16;21.60;99.90
18593;DHT22;9426;54.118;17.948;2022-08-04T21:56:40;21.70;99.90
18593;DHT22;9426;54.118;17.948;2022-08-04T22:02:04;21.80;99.90
18593;DHT22;9426;54.118;17.948;2022-08-04T22:07:27;21.90;99.90
18593;DHT22;9426;54.118;17.948;2022-08-04T22:12:52;21.90;99.90
18593;DHT22;9426;54.118;17.948;2022-08-04T22:18:17;21.80;99.90
18593;DHT22;9426;54.118;17.948;2022-08-04T22:23:40;21.90;99.90
18593;DHT22;9426;54.118;17.948;2022-08-04T22:29:04;21.80;99.90
18593;DHT22;9426;54.118;17.948;2022-08-04T22:34:29;21.90;99.90
18593;DHT22;9426;54.118;17.948;2022-08-04T22:39:55;21.90;99.90
18593;DHT22;9426;54.118;17.948;2022-08-04T22:45:19;21.90;99.90
18593;DHT22;9426;54.118;17.948;2022-08-04T22:50:44;21.90;99.90
18593;DHT22;9426;54.118;17.948;2022-08-04T22:56:08;21.90;99.90
18593;DHT22;9426;54.118;17.948;2022-08-04T23:01:34;21.90;99.90
18593;DHT22;9426;54.118;17.948;2022-08-04T23:07:01;21.80;99.90
18593;DHT22;9426;54.118;17.948;2022-08-04T23:12:24;21.80;99.90
18593;DHT22;9426;54.118;17.948;2022-08-04T23:17:48;21.70;99.90
18593;DHT22;9426;54.118;17.948;2022-08-04T23:23:13;21.60;99.90
18593;DHT22;9426;54.118;17.948;2022-08-04T23:28:36;21.70;99.90
18593;DHT22;9426;54.118;17.948;2022-08-04T23:34:00;21.70;99.90
18593;DHT22;9426;54.118;17.948;2022-08-04T23:39:25;21.60;99.90
18593;DHT22;9426;54.118;17.948;2022-08-04T23:44:49;21.50;99.90
18593;DHT22;9426;54.118;17.948;2022-08-04T23:50:13;21.50;99.90
18593;DHT22;9426;54.118;17.948;2022-08-04T23:55:37;21.40;99.90
